Time;durP1;ratioP1;P1;durP2;ratioP2;P2;SDS_P1;SDS_P2;PMS_P1;PMS_P2;Temp;Humidity;BMP_temperature;BMP_pressure;BME280_temperature;BME280_humidity;BME280_pressure;Samples;Min_cycle;Max_cycle;Signal;HPM_P1;HPM_P2
2021/04/15 18:56:20;;;;;;;10.87;8.87;;;;;;;13.26;62.89;100247.32;2527959;77;29143;-80
2021/04/15 18:59:54;;;;;;;11.90;8.78;;;;;;;13.61;62.36;100254.23;2542873;77;25657;-77
2021/04/15 19:03:17;;;;;;;13.03;8.80;;;;;;;13.72;61.98;100249.95;2544940;77;25736;-78
2021/04/15 19:06:41;;;;;;;10.18;8.33;;;;;;;13.68;61.63;100254.73;2545296;77;25785;-78
2021/04/15 19:10:12;;;;;;;8.88;7.97;;;;;;;13.60;61.58;100255.98;2545184;77;25535;-74
2021/04/15 19:13:33;;;;;;;10.05;8.78;;;;;;;13.53;61.50;100238.86;2492565;79;25687;-80
2021/04/15 19:16:56;;;;;;;9.98;8.38;;;;;;;13.47;61.41;100247.55;2560714;77;25604;-79
2021/04/15 19:20:21;;;;;;;15.00;9.38;;;;;;;13.41;61.30;100247.49;2560009;77;25244;-78
2021/04/15 19:23:45;;;;;;;13.58;8.70;;;;;;;13.35;61.26;100236.52;2560029;77;25855;-79
2021/04/15 19:27:07;;;;;;;12.15;9.63;;;;;;;13.29;61.18;100240.81;2548587;77;25268;-80
2021/04/15 19:30:36;;;;;;;18.48;8.78;;;;;;;13.27;61.17;100234.70;2533663;77;25769;-82
2021/04/15 19:34:15;;;;;;;10.43;7.97;;;;;;;13.22;61.10;100232.86;2507602;78;25834;-80
2021/04/15 19:38:00;;;;;;;14.43;8.53;;;;;;;13.18;61.06;100238.05;2533680;78;25633;-79
2021/04/15 19:41:50;;;;;;;12.35;8.60;;;;;;;13.14;61.01;100234.96;2557111;77;25700;-79
2021/04/15 19:45:27;;;;;;;12.63;7.78;;;;;;;13.10;60.98;100235.36;2473757;78;25893;-79
2021/04/15 19:48:59;;;;;;;9.15;8.00;;;;;;;13.06;60.92;100229.66;2481755;78;25219;-78
2021/04/15 19:52:44;;;;;;;12.55;7.78;;;;;;;13.02;60.88;100229.58;2476209;79;25783;-76
2021/04/15 19:56:32;;;;;;;;;;;;;;;;;;;;;
2021/04/15 20:11:01;;;;;;;;;;;;;;;;;;;;;
2021/04/15 20:25:11;;;;;;;9.33;7.07;;;;;;;12.88;60.60;100208.49;2391386;82;27535;-80
2021/04/15 20:28:57;;;;;;;;;;;;;;;;;;;;;
2021/04/15 20:32:49;;;;;;;8.07;7.20;;;;;;;12.85;60.55;100217.17;2573183;75;29097;-82
2021/04/15 20:37:07;;;;;;;8.58;7.67;;;;;;;12.78;60.50;100217.97;2531193;76;25750;-82
2021/04/15 20:40:59;;;;;;;;;;;;;;;;;;;;;
2021/04/15 20:45:11;;;;;;;10.20;8.00;;;;;;;12.80;60.41;100213.64;2471967;78;29488;-81
2021/04/15 20:48:51;;;;;;;7.78;6.85;;;;;;;12.75;60.36;100214.00;2472943;79;25620;-83
2021/04/15 20:53:08;;;;;;;;;;;;;;;;;;;;;
2021/04/15 21:21:48;;;;;;;9.97;7.57;;;;;;;12.63;59.93;100188.59;2420960;81;26052;-80
2021/04/15 21:25:26;;;;;;;8.90;8.00;;;;;;;12.56;59.89;100185.89;2386440;82;25504;-78
2021/04/15 21:29:01;;;;;;;9.25;7.42;;;;;;;12.55;59.85;100187.61;2372542;82;25654;-77
2021/04/15 21:32:30;;;;;;;13.40;8.18;;;;;;;12.55;59.79;100186.30;2386438;82;25732;-78
2021/04/15 21:36:09;;;;;;;10.18;8.23;;;;;;;12.55;59.72;100189.34;2379401;81;25701;-77
2021/04/15 21:44:06;;;;;;;10.50;8.58;;;;;;;12.52;59.64;100184.55;2290864;86;25711;-80
2021/04/15 21:47:39;;;;;;;8.60;7.65;;;;;;;12.51;59.59;100181.46;2148838;91;25513;-76
2021/04/15 21:51:13;;;;;;;11.67;9.23;;;;;;;12.55;59.55;100172.35;2594995;74;27148;-76
2021/04/15 21:54:36;;;;;;;10.50;7.85;;;;;;;12.49;59.52;100174.05;2558973;76;25621;-78
2021/04/15 21:58:19;;;;;;;9.33;7.47;;;;;;;12.50;59.46;100172.30;2558751;76;25938;-76
2021/04/15 22:01:45;;;;;;;10.90;8.20;;;;;;;12.49;59.42;100175.35;2504537;77;25571;-79
2021/04/15 22:05:15;;;;;;;11.38;8.48;;;;;;;12.49;59.39;100177.97;2486262;78;26235;-79
2021/04/15 22:09:05;;;;;;;8.80;6.80;;;;;;;12.48;59.33;100170.96;2484931;78;25350;-79
2021/04/15 22:16:42;;;;;;;12.15;8.25;;;;;;;12.47;59.24;100169.65;2418105;80;25642;-78
2021/04/15 22:20:32;;;;;;;9.40;7.62;;;;;;;12.46;59.20;100174.00;2418912;80;26448;-78
2021/04/15 22:35:57;;;;;;;;;;;;;;;;;;;;;
2021/04/15 23:34:12;;;;;;;;;;;;;;;;;;;;;
2021/04/15 23:58:09;;;;;;;;;;;;;;;;;;;;;
